Time;durP1;ratioP1;P1;durP2;ratioP2;P2;SDS_P1;SDS_P2;PMS_P1;PMS_P2;Temp;Humidity;BMP_temperature;BMP_pressure;BME280_temperature;BME280_humidity;BME280_pressure;Samples;Min_cycle;Max_cycle;Signal;HPM_P1;HPM_P2
2022/03/03 00:00:22;;;;;;;20.30;14.98;;;;;;;2.55;62.23;100270.97;1086640;54;20038;-80
2022/03/03 00:01:23;;;;;;;22.98;16.05;;;;;;;2.54;62.29;100275.41;1086544;54;20065;-80
2022/03/03 00:02:28;;;;;;;23.17;14.95;;;;;;;2.49;62.24;100270.38;1086804;39;20488;-78
2022/03/03 00:03:32;;;;;;;23.75;16.38;;;;;;;2.46;62.76;100282.88;1085607;54;20061;-78
2022/03/03 00:04:36;;;;;;;24.50;16.25;;;;;;;2.46;62.61;100277.59;1084663;54;20045;-78
2022/03/03 00:05:38;;;;;;;20.70;14.98;;;;;;;2.45;62.58;100281.22;1084676;54;20057;-77
2022/03/03 00:06:42;;;;;;;21.90;14.75;;;;;;;2.44;62.48;100274.22;1085492;54;20045;-77
2022/03/03 00:07:44;;;;;;;20.38;14.48;;;;;;;2.43;62.67;100278.63;1088073;39;20520;-78
2022/03/03 00:08:48;;;;;;;21.60;14.93;;;;;;;2.42;62.73;100276.09;1085309;54;20787;-78
2022/03/03 00:09:49;;;;;;;18.80;14.23;;;;;;;2.40;62.59;100272.69;1085008;54;20046;-78
2022/03/03 00:10:53;;;;;;;20.00;14.43;;;;;;;2.39;62.78;100274.50;1085408;54;20054;-78
2022/03/03 00:11:55;;;;;;;20.88;15.80;;;;;;;2.38;62.75;100274.56;1085324;54;20034;-78
2022/03/03 00:12:59;;;;;;;22.63;16.58;;;;;;;2.27;63.37;100273.38;1085333;54;20117;-78
2022/03/03 00:14:01;;;;;;;23.58;16.20;;;;;;;2.29;62.99;100271.50;1085194;54;20030;-78
2022/03/03 00:15:06;;;;;;;25.10;17.40;;;;;;;2.24;63.46;100272.69;1085294;54;20065;-77
2022/03/03 00:16:08;;;;;;;21.23;15.98;;;;;;;2.20;63.54;100274.66;1085209;54;20038;-78
2022/03/03 00:17:12;;;;;;;23.42;16.33;;;;;;;2.16;63.67;100271.34;1085259;54;20728;-78
2022/03/03 00:18:14;;;;;;;24.05;17.25;;;;;;;2.14;63.73;100275.00;1085037;54;20042;-78
2022/03/03 00:19:20;;;;;;;25.70;17.02;;;;;;;2.13;63.84;100278.56;1085447;47;20037;-78
2022/03/03 00:20:22;;;;;;;22.50;16.20;;;;;;;2.13;63.66;100275.94;1085271;54;20049;-78
2022/03/03 00:21:26;;;;;;;25.67;16.95;;;;;;;2.14;63.66;100269.72;1084488;54;20039;-79
2022/03/03 00:22:27;;;;;;;21.58;15.35;;;;;;;2.16;63.55;100281.06;1084761;54;20042;-77
2022/03/03 00:23:33;;;;;;;21.08;15.18;;;;;;;2.18;63.29;100273.88;1085340;54;20039;-77
2022/03/03 00:24:34;;;;;;;25.83;16.05;;;;;;;2.13;63.49;100276.78;1085365;54;20067;-78
2022/03/03 00:25:39;;;;;;;23.40;16.95;;;;;;;2.13;63.37;100275.94;1085547;54;20042;-78
2022/03/03 00:26:40;;;;;;;21.48;15.07;;;;;;;2.14;63.34;100281.13;1085578;54;20039;-78
2022/03/03 00:27:44;;;;;;;20.65;15.07;;;;;;;2.16;63.16;100275.78;1085507;54;20671;-78
2022/03/03 00:28:46;;;;;;;21.50;13.60;;;;;;;2.17;63.14;100277.47;1085625;54;20069;-79
2022/03/03 00:29:51;;;;;;;21.30;15.13;;;;;;;2.18;63.24;100279.16;1085471;54;20639;-78
2022/03/03 00:30:53;;;;;;;20.15;14.05;;;;;;;2.17;63.14;100273.03;1085540;54;20046;-78
2022/03/03 00:31:57;;;;;;;19.45;13.98;;;;;;;2.17;63.25;100272.22;1085456;54;20564;-78
2022/03/03 00:33:02;;;;;;;20.35;14.00;;;;;;;2.17;63.15;100277.47;1085394;54;20058;-78
2022/03/03 00:34:03;;;;;;;19.35;14.45;;;;;;;2.15;63.20;100272.28;1085368;54;20081;-78
2022/03/03 00:35:11;;;;;;;23.77;14.27;;;;;;;2.13;63.12;100266.22;1085269;54;20038;-77
2022/03/03 00:36:13;;;;;;;20.42;14.70;;;;;;;2.12;63.12;100263.69;1085502;54;20061;-78
2022/03/03 00:37:17;;;;;;;19.10;14.07;;;;;;;2.13;62.87;100268.84;1085432;54;20111;-78
2022/03/03 00:38:18;;;;;;;19.25;13.60;;;;;;;2.13;63.00;100260.94;1085113;54;20053;-78
2022/03/03 00:39:23;;;;;;;20.65;14.43;;;;;;;2.08;63.19;100259.53;1085429;54;20755;-78
2022/03/03 00:40:27;;;;;;;19.73;14.02;;;;;;;2.02;63.42;100263.34;1085955;54;20045;-78
2022/03/03 00:41:31;;;;;;;20.13;15.05;;;;;;;2.05;63.12;100257.06;1085870;54;20039;-78
2022/03/03 00:42:33;;;;;;;17.75;13.07;;;;;;;2.09;62.99;100258.56;1086875;39;20817;-78
2022/03/03 00:43:37;;;;;;;19.45;13.07;;;;;;;2.10;62.97;100257.63;1085917;54;20045;-78
2022/03/03 00:44:39;;;;;;;20.60;13.75;;;;;;;2.11;62.89;100254.06;1086944;39;20533;-78
2022/03/03 00:45:44;;;;;;;18.55;14.00;;;;;;;2.13;62.86;100263.59;1086211;54;20042;-78
2022/03/03 00:46:45;;;;;;;18.40;13.60;;;;;;;2.12;62.93;100256.63;1086020;54;20038;-78
2022/03/03 00:47:50;;;;;;;19.27;14.05;;;;;;;2.14;62.71;100257.38;1086247;54;20046;-77
2022/03/03 00:48:51;;;;;;;17.88;12.82;;;;;;;2.09;62.93;100256.78;1085874;54;20038;-78
2022/03/03 00:49:55;;;;;;;22.67;14.68;;;;;;;1.95;63.67;100254.91;1086442;54;20046;-77
2022/03/03 00:51:04;;;;;;;21.80;14.63;;;;;;;1.93;63.96;100248.88;1085593;54;20054;-78
2022/03/03 00:52:08;;;;;;;21.38;15.75;;;;;;;1.97;63.61;100249.56;1085540;54;20119;-78
2022/03/03 00:53:10;;;;;;;21.45;14.60;;;;;;;1.99;63.58;100252.97;1085825;54;20069;-78
2022/03/03 00:54:14;;;;;;;21.48;15.02;;;;;;;2.05;63.57;100259.69;1085665;54;20046;-78
2022/03/03 00:55:16;;;;;;;20.60;14.93;;;;;;;2.02;63.56;100266.00;1085316;54;20034;-78
2022/03/03 00:56:20;;;;;;;22.30;15.60;;;;;;;2.00;63.65;100267.84;1085972;54;20034;-77
2022/03/03 00:57:22;;;;;;;19.40;14.27;;;;;;;2.06;63.43;100264.03;1086094;54;20030;-78
2022/03/03 00:58:26;;;;;;;21.50;15.25;;;;;;;2.09;63.33;100271.75;1086342;47;20065;-78
2022/03/03 00:59:28;;;;;;;19.23;13.73;;;;;;;2.08;63.64;100268.28;1086432;54;20062;-78
2022/03/03 01:00:32;;;;;;;23.42;16.25;;;;;;;2.00;64.13;100266.06;1086255;54;20034;-78
2022/03/03 01:01:34;;;;;;;21.83;15.77;;;;;;;1.99;63.89;100268.78;1085170;54;20050;-78
2022/03/03 01:02:38;;;;;;;23.80;15.80;;;;;;;1.93;64.59;100274.41;1085481;54;20038;-78
2022/03/03 01:03:41;;;;;;;23.05;15.38;;;;;;;1.90;64.45;100266.66;1085738;54;20042;-78
2022/03/03 01:04:45;;;;;;;20.90;15.32;;;;;;;1.92;64.76;100268.25;1085558;54;20729;-78
2022/03/03 01:05:46;;;;;;;24.02;17.23;;;;;;;1.86;65.04;100273.88;1085435;54;20061;-78
2022/03/03 01:06:53;;;;;;;24.50;15.98;;;;;;;1.86;65.23;100276.53;1086250;46;20591;-77
2022/03/03 01:07:55;;;;;;;19.80;14.50;;;;;;;1.85;64.94;100272.19;1085758;54;20045;-77
2022/03/03 01:08:59;;;;;;;21.80;16.17;;;;;;;1.81;65.00;100271.50;1085928;54;20631;-78
2022/03/03 01:10:01;;;;;;;19.83;15.10;;;;;;;1.82;64.79;100265.28;1085663;54;20292;-78
2022/03/03 01:11:05;;;;;;;22.40;15.68;;;;;;;1.79;64.76;100270.72;1085287;54;20050;-78
2022/03/03 01:12:08;;;;;;;21.83;16.55;;;;;;;1.79;64.85;100261.97;1085395;54;20070;-77
2022/03/03 01:13:12;;;;;;;21.90;15.52;;;;;;;1.74;64.90;100266.63;1085579;54;20038;-78
2022/03/03 01:14:14;;;;;;;23.95;16.13;;;;;;;1.67;64.94;100269.59;1085793;54;20049;-78
2022/03/03 01:15:18;;;;;;;21.23;15.60;;;;;;;1.69;64.98;100256.31;1085599;54;20619;-78
2022/03/03 01:16:19;;;;;;;21.58;14.73;;;;;;;1.67;65.05;100253.78;1085267;54;20034;-78
2022/03/03 01:17:25;;;;;;;20.98;15.27;;;;;;;1.66;64.86;100267.03;1085967;54;20045;-78
2022/03/03 01:18:26;;;;;;;26.88;16.08;;;;;;;1.63;65.01;100268.06;1085572;54;20049;-78
2022/03/03 01:19:30;;;;;;;22.50;15.43;;;;;;;1.60;65.11;100260.31;1085529;54;20058;-78
2022/03/03 01:20:32;;;;;;;22.88;15.65;;;;;;;1.58;65.19;100261.31;1085695;54;20038;-78
2022/03/03 01:21:36;;;;;;;24.65;16.85;;;;;;;1.54;65.23;100265.91;1086047;46;20579;-78
2022/03/03 01:22:41;;;;;;;21.55;15.02;;;;;;;1.49;65.16;100265.31;1086025;54;20045;-78
2022/03/03 01:23:45;;;;;;;23.15;16.40;;;;;;;1.46;65.44;100258.44;1086495;46;20042;-77
2022/03/03 01:24:46;;;;;;;20.20;15.40;;;;;;;1.51;65.28;100259.03;1086541;54;20042;-78
2022/03/03 01:25:51;;;;;;;21.67;15.20;;;;;;;1.50;65.11;100262.59;1086828;54;20569;-78
2022/03/03 01:26:52;;;;;;;21.60;14.40;;;;;;;1.53;64.93;100267.72;1086612;54;20039;-78
2022/03/03 01:27:57;;;;;;;23.45;15.55;;;;;;;1.48;65.40;100263.59;1085988;54;20065;-78
2022/03/03 01:28:58;;;;;;;21.42;15.73;;;;;;;1.48;65.00;100266.25;1086232;54;20066;-78
2022/03/03 01:30:04;;;;;;;28.67;16.23;;;;;;;1.46;65.02;100266.34;1086778;54;20548;-78
2022/03/03 01:31:05;;;;;;;21.02;14.18;;;;;;;1.51;65.09;100258.19;1086654;54;20030;-78
2022/03/03 01:32:11;;;;;;;23.88;15.48;;;;;;;1.53;64.95;100259.81;1086043;54;20146;-78
2022/03/03 01:33:12;;;;;;;21.25;15.07;;;;;;;1.51;64.94;100255.56;1085616;54;20054;-79
2022/03/03 01:34:16;;;;;;;21.38;15.02;;;;;;;1.48;65.06;100255.69;1085809;54;20090;-79
2022/03/03 01:35:18;;;;;;;20.67;14.20;;;;;;;1.54;64.74;100258.00;1085402;54;20070;-79
2022/03/03 01:36:22;;;;;;;21.98;15.13;;;;;;;1.51;64.91;100259.03;1085674;39;20227;-79
2022/03/03 01:37:23;;;;;;;22.35;15.35;;;;;;;1.48;64.93;100256.53;1085394;54;20039;-78
2022/03/03 01:38:30;;;;;;;22.65;16.35;;;;;;;1.45;65.22;100264.63;1085210;54;20035;-78
2022/03/03 01:39:32;;;;;;;23.70;16.45;;;;;;;1.42;65.29;100253.41;1085018;54;20635;-79
2022/03/03 01:40:36;;;;;;;21.40;15.70;;;;;;;1.35;65.35;100256.34;1085356;54;20045;-79
2022/03/03 01:41:38;;;;;;;22.48;15.98;;;;;;;1.36;65.41;100254.56;1085316;54;20045;-78
2022/03/03 01:42:43;;;;;;;22.42;15.05;;;;;;;1.36;65.19;100250.13;1085576;54;20039;-78
2022/03/03 01:43:44;;;;;;;22.48;15.80;;;;;;;1.35;65.38;100253.69;1086092;39;20468;-78
2022/03/03 01:44:49;;;;;;;22.67;16.05;;;;;;;1.32;65.54;100253.03;1085107;54;20046;-79
2022/03/03 01:45:51;;;;;;;24.80;16.02;;;;;;;1.35;65.30;100253.69;1085493;46;20950;-79
2022/03/03 01:46:57;;;;;;;20.40;14.98;;;;;;;1.35;65.44;100260.78;1085513;54;20042;-79
2022/03/03 01:47:59;;;;;;;21.35;15.15;;;;;;;1.31;65.53;100260.09;1085596;54;20559;-78
2022/03/03 01:49:04;;;;;;;21.90;15.63;;;;;;;1.35;65.22;100269.50;1085837;54;20038;-79
2022/03/03 01:50:06;;;;;;;20.60;13.93;;;;;;;1.37;65.28;100256.28;1085904;54;20027;-78
2022/03/03 01:51:10;;;;;;;19.35;14.10;;;;;;;1.39;65.28;100259.66;1085456;54;20046;-79
2022/03/03 01:52:12;;;;;;;20.05;14.95;;;;;;;1.35;65.30;100256.34;1085887;54;20126;-79
2022/03/03 01:53:16;;;;;;;22.40;14.82;;;;;;;1.36;65.18;100260.69;1085849;54;20552;-79
2022/03/03 01:54:21;;;;;;;20.15;14.43;;;;;;;1.35;65.46;100258.13;1085831;46;20035;-78
2022/03/03 01:55:25;;;;;;;21.33;14.77;;;;;;;1.34;65.09;100246.72;1085480;54;20978;-78
2022/03/03 01:56:26;;;;;;;21.33;15.13;;;;;;;1.31;65.40;100257.44;1085486;54;20065;-77
2022/03/03 01:57:31;;;;;;;19.95;14.90;;;;;;;1.31;65.38;100252.19;1085993;54;20061;-77
2022/03/03 01:58:32;;;;;;;20.55;15.15;;;;;;;1.32;65.17;100251.25;1085464;54;20049;-77
2022/03/03 01:59:37;;;;;;;22.67;15.48;;;;;;;1.28;65.50;100248.81;1085694;54;20052;-78
2022/03/03 02:00:42;;;;;;;22.20;15.50;;;;;;;1.22;65.64;100245.59;1084969;54;20068;-78
2022/03/03 02:01:44;;;;;;;21.95;14.48;;;;;;;1.27;65.72;100250.63;1085260;54;20038;-78
2022/03/03 02:02:49;;;;;;;21.95;15.93;;;;;;;1.26;65.76;100243.66;1084995;54;20035;-79
2022/03/03 02:03:51;;;;;;;25.02;17.30;;;;;;;1.19;66.19;100247.53;1085248;54;20038;-78
2022/03/03 02:04:55;;;;;;;22.45;16.58;;;;;;;1.16;66.07;100248.56;1085771;54;20065;-78
2022/03/03 02:05:59;;;;;;;22.45;15.77;;;;;;;1.21;65.95;100243.88;1085847;39;20540;-78
2022/03/03 02:07:01;;;;;;;21.42;14.68;;;;;;;1.20;65.81;100243.97;1085958;54;20034;-77
2022/03/03 02:08:06;;;;;;;22.95;15.85;;;;;;;1.16;66.06;100238.03;1085909;54;20061;-77
2022/03/03 02:09:07;;;;;;;23.70;16.55;;;;;;;1.09;66.14;100234.84;1086050;54;20085;-78
2022/03/03 02:10:14;;;;;;;23.60;16.23;;;;;;;1.12;66.28;100240.91;1086040;46;20118;-78
2022/03/03 02:11:16;;;;;;;24.05;15.20;;;;;;;1.14;66.06;100239.88;1085737;54;20035;-77
2022/03/03 02:12:20;;;;;;;21.58;16.33;;;;;;;1.14;66.11;100233.75;1085628;54;20062;-78
2022/03/03 02:13:22;;;;;;;22.77;15.20;;;;;;;1.18;66.09;100235.31;1085816;54;20062;-78
2022/03/03 02:14:26;;;;;;;18.95;14.40;;;;;;;1.19;65.97;100234.38;1085472;54;20046;-79
2022/03/03 02:15:28;;;;;;;19.60;14.02;;;;;;;1.20;66.04;100233.44;1085842;54;20046;-78
2022/03/03 02:16:32;;;;;;;19.40;14.10;;;;;;;1.22;65.87;100235.06;1086563;39;20656;-77
2022/03/03 02:17:34;;;;;;;24.33;15.55;;;;;;;1.19;65.79;100231.75;1086266;39;20449;-77
2022/03/03 02:18:42;;;;;;;19.73;14.10;;;;;;;1.21;65.90;100233.34;1084835;54;20035;-78
2022/03/03 02:19:44;;;;;;;21.50;14.32;;;;;;;1.23;65.75;100228.00;1084895;54;20107;-78
2022/03/03 02:20:51;;;;;;;20.27;14.23;;;;;;;1.21;65.93;100230.72;1085496;54;20034;-78
2022/03/03 02:21:53;;;;;;;20.75;14.32;;;;;;;1.24;65.61;100229.69;1085559;54;20042;-77
2022/03/03 02:22:59;;;;;;;19.98;14.18;;;;;;;1.24;65.62;100222.66;1086123;46;20041;-78
2022/03/03 02:24:01;;;;;;;22.17;15.27;;;;;;;1.19;66.04;100226.47;1085889;54;20046;-78
2022/03/03 02:25:06;;;;;;;20.67;15.48;;;;;;;1.19;65.77;100237.84;1085694;54;20150;-78
2022/03/03 02:26:14;;;;;;;18.45;13.60;;;;;;;1.17;66.05;100233.59;1085482;54;20671;-80
2022/03/03 02:27:17;;;;;;;20.02;14.45;;;;;;;1.15;66.08;100233.69;1086343;54;20046;-79
2022/03/03 02:28:21;;;;;;;21.67;16.20;;;;;;;1.14;66.17;100241.66;1086891;54;20042;-78
2022/03/03 02:29:22;;;;;;;20.75;15.98;;;;;;;1.15;65.92;100232.81;1087629;54;20051;-80
2022/03/03 02:30:27;;;;;;;20.45;15.32;;;;;;;1.12;65.94;100230.38;1089722;46;20049;-78
2022/03/03 02:31:28;;;;;;;21.40;15.02;;;;;;;1.09;66.07;100234.84;1089064;46;20035;-79
2022/03/03 02:32:32;;;;;;;22.88;15.38;;;;;;;1.06;66.21;100231.53;1088411;46;20038;-78
2022/03/03 02:33:34;;;;;;;22.67;15.38;;;;;;;1.06;66.36;100237.63;1087493;54;20038;-78
2022/03/03 02:34:40;;;;;;;23.10;16.25;;;;;;;0.98;66.40;100242.44;1087293;54;20038;-80
2022/03/03 02:35:42;;;;;;;23.40;16.42;;;;;;;0.99;66.50;100233.63;1087051;54;20042;-79
2022/03/03 02:36:49;;;;;;;21.65;15.65;;;;;;;1.00;66.43;100237.09;1087216;47;20038;-77
2022/03/03 02:37:50;;;;;;;22.30;15.57;;;;;;;1.02;66.36;100235.25;1087398;54;20018;-76
2022/03/03 02:38:57;;;;;;;21.52;15.38;;;;;;;1.02;66.47;100236.09;1087447;54;20054;-78
2022/03/03 02:40:01;;;;;;;19.88;14.10;;;;;;;1.06;66.30;100234.16;1087432;54;20042;-78
2022/03/03 02:41:02;;;;;;;20.75;15.10;;;;;;;1.03;66.25;100237.81;1087103;54;20034;-78
2022/03/03 02:42:09;;;;;;;23.25;16.00;;;;;;;1.00;66.31;100237.09;1087369;51;20042;-77
2022/03/03 02:43:10;;;;;;;21.25;14.98;;;;;;;0.98;66.25;100234.56;1086614;54;20046;-78
2022/03/03 02:44:14;;;;;;;20.80;15.27;;;;;;;1.00;66.22;100226.56;1086030;54;20545;-77
2022/03/03 02:45:16;;;;;;;21.17;14.90;;;;;;;1.01;66.23;100223.88;1086384;54;20045;-78
2022/03/03 02:46:21;;;;;;;19.58;14.25;;;;;;;1.03;66.27;100222.00;1087213;39;20445;-78
2022/03/03 02:47:22;;;;;;;20.55;14.18;;;;;;;1.04;66.08;100217.59;1086533;54;20042;-78
2022/03/03 02:48:26;;;;;;;21.50;14.25;;;;;;;1.05;66.06;100216.66;1086701;54;20039;-78
2022/03/03 02:49:31;;;;;;;20.15;14.45;;;;;;;1.03;65.77;100216.75;1086902;46;20041;-78
2022/03/03 02:50:39;;;;;;;20.27;14.57;;;;;;;0.98;66.15;100207.38;1086255;54;20057;-79
2022/03/03 02:51:43;;;;;;;21.13;15.55;;;;;;;0.89;66.38;100212.19;1087716;54;20018;-78
2022/03/03 02:52:48;;;;;;;20.77;15.70;;;;;;;0.86;66.66;100219.38;1088000;54;20025;-78
2022/03/03 02:53:53;;;;;;;24.23;16.30;;;;;;;0.82;66.62;100204.69;1087709;54;20038;-78
2022/03/03 02:54:58;;;;;;;22.20;15.23;;;;;;;0.84;66.48;100208.09;1087976;46;20030;-78
2022/03/03 02:56:00;;;;;;;22.80;15.77;;;;;;;0.80;66.70;100214.44;1087203;54;20038;-78
2022/03/03 02:58:20;;;;;;;23.33;15.90;;;;;;;0.80;66.59;100201.28;1086232;54;20054;-78
2022/03/03 02:59:22;;;;;;;21.23;16.13;;;;;;;0.71;66.77;100195.56;1085953;54;20049;-78
2022/03/03 03:00:31;;;;;;;20.40;14.85;;;;;;;0.74;66.56;100195.41;1086565;39;20477;-79
2022/03/03 03:01:32;;;;;;;21.27;14.45;;;;;;;0.77;66.63;100195.22;1086093;54;20042;-79
2022/03/03 03:02:36;;;;;;;20.33;14.50;;;;;;;0.76;66.77;100195.31;1089547;39;20775;-79
2022/03/03 03:03:38;;;;;;;20.75;14.15;;;;;;;0.82;66.51;100194.16;1085971;54;20046;-79
2022/03/03 03:04:43;;;;;;;18.98;13.68;;;;;;;0.85;66.49;100192.22;1085905;54;20030;-78
2022/03/03 03:05:48;;;;;;;19.63;14.70;;;;;;;0.84;66.53;100187.88;1085192;54;20094;-78
2022/03/03 03:06:49;;;;;;;23.60;15.60;;;;;;;0.84;66.52;100197.56;1086187;46;20022;-79
2022/03/03 03:07:56;;;;;;;20.73;14.70;;;;;;;0.78;66.79;100194.31;1086192;54;20042;-79
2022/03/03 03:08:58;;;;;;;24.52;15.80;;;;;;;0.75;66.79;100197.09;1085948;54;20046;-78
2022/03/03 03:10:02;;;;;;;20.83;15.25;;;;;;;0.78;66.96;100191.66;1085712;54;20025;-78
2022/03/03 03:11:04;;;;;;;20.75;15.07;;;;;;;0.77;66.79;100192.59;1088119;39;20626;-78
2022/03/03 03:12:09;;;;;;;21.63;16.70;;;;;;;0.75;66.94;100190.97;1086265;54;20049;-78
2022/03/03 03:13:14;;;;;;;22.27;15.63;;;;;;;0.73;67.08;100188.44;1086127;54;20042;-78
2022/03/03 03:14:19;;;;;;;24.20;16.15;;;;;;;0.72;67.08;100196.38;1087688;46;20038;-78
2022/03/03 03:15:22;;;;;;;23.30;15.75;;;;;;;0.66;67.33;100189.69;1086431;54;20042;-78
2022/03/03 03:16:26;;;;;;;21.48;15.18;;;;;;;0.67;67.38;100199.25;1086258;54;20038;-78
2022/03/03 03:17:28;;;;;;;22.83;15.77;;;;;;;0.70;67.40;100178.06;1087469;54;20057;-78
2022/03/03 03:18:32;;;;;;;20.23;15.43;;;;;;;0.58;67.90;100186.56;1089428;46;20650;-78
2022/03/03 03:19:33;;;;;;;22.33;15.82;;;;;;;0.47;68.24;100193.22;1087642;54;20035;-78
2022/03/03 03:20:35;;;;;;;22.50;16.35;;;;;;;0.46;68.24;100191.53;1086755;54;20035;-78
2022/03/03 03:21:39;;;;;;;22.63;16.80;;;;;;;0.50;68.35;100192.22;1086178;54;20069;-78
2022/03/03 03:22:41;;;;;;;19.70;14.93;;;;;;;0.50;68.33;100192.22;1086337;54;20046;-78
2022/03/03 03:23:48;;;;;;;21.63;15.50;;;;;;;0.45;68.58;100188.97;1086134;54;20050;-78
2022/03/03 03:24:50;;;;;;;24.02;16.63;;;;;;;0.37;68.67;100191.13;1086044;54;20026;-78
2022/03/03 03:25:55;;;;;;;24.35;16.83;;;;;;;0.37;68.69;100183.22;1086163;54;20037;-78
2022/03/03 03:26:56;;;;;;;21.75;16.15;;;;;;;0.37;68.49;100186.72;1085744;54;20065;-78
2022/03/03 03:28:00;;;;;;;23.08;16.75;;;;;;;0.26;69.05;100196.94;1086114;54;20576;-78
2022/03/03 03:29:02;;;;;;;22.73;16.58;;;;;;;0.13;69.31;100188.78;1086491;54;20060;-78
2022/03/03 03:30:08;;;;;;;24.23;17.88;;;;;;;0.08;69.59;100189.00;1086211;54;20038;-78
2022/03/03 03:31:10;;;;;;;22.25;16.98;;;;;;;0.03;69.43;100182.25;1086186;54;20038;-79
2022/03/03 03:32:14;;;;;;;26.33;18.88;;;;;;;0.00;69.71;100180.66;1086088;54;20038;-78
2022/03/03 03:33:15;;;;;;;26.00;18.02;;;;;;;-0.10;70.06;100182.84;1085467;54;20038;-78
2022/03/03 03:34:19;;;;;;;25.40;18.23;;;;;;;-0.22;70.40;100179.03;1086213;54;20039;-78
2022/03/03 03:35:21;;;;;;;26.73;17.67;;;;;;;-0.30;70.55;100182.94;1087371;54;20042;-77
2022/03/03 03:36:25;;;;;;;26.30;18.38;;;;;;;-0.29;70.56;100169.75;1086731;54;20054;-78
2022/03/03 03:37:27;;;;;;;24.30;18.10;;;;;;;-0.28;70.58;100173.22;1087282;46;20054;-78
2022/03/03 03:38:31;;;;;;;25.15;18.15;;;;;;;-0.28;70.41;100168.78;1086982;39;20513;-77
2022/03/03 03:39:35;;;;;;;21.77;16.67;;;;;;;-0.13;70.01;100171.63;1086194;54;20038;-78
2022/03/03 03:40:42;;;;;;;23.33;17.13;;;;;;;-0.17;70.05;100169.13;1086033;54;20031;-78
2022/03/03 03:41:43;;;;;;;24.90;17.63;;;;;;;-0.26;70.25;100174.00;1086031;54;20071;-79
2022/03/03 03:42:48;;;;;;;22.73;16.45;;;;;;;-0.26;70.41;100171.38;1086316;54;20049;-78
2022/03/03 03:43:50;;;;;;;23.45;17.98;;;;;;;-0.35;70.53;100168.25;1086175;54;20034;-78
2022/03/03 03:44:54;;;;;;;24.38;17.67;;;;;;;-0.26;70.29;100174.84;1085715;54;20041;-78
2022/03/03 03:45:55;;;;;;;25.88;16.98;;;;;;;-0.30;70.32;100170.66;1086138;54;20038;-78
2022/03/03 03:47:01;;;;;;;25.23;17.90;;;;;;;-0.38;70.50;100172.81;1086256;54;20576;-78
2022/03/03 03:48:03;;;;;;;24.33;18.63;;;;;;;-0.38;70.72;100178.06;1085691;54;20077;-79
2022/03/03 03:49:08;;;;;;;23.60;16.85;;;;;;;-0.32;70.39;100168.09;1085990;54;20061;-78
2022/03/03 03:50:12;;;;;;;23.20;16.95;;;;;;;-0.33;70.21;100176.06;1086668;54;20058;-78
2022/03/03 03:51:16;;;;;;;24.35;17.23;;;;;;;-0.26;70.25;100172.19;1086679;54;20048;-78
2022/03/03 03:52:18;;;;;;;26.13;17.80;;;;;;;-0.32;70.36;100173.34;1086703;54;20042;-79
2022/03/03 03:53:23;;;;;;;24.85;16.55;;;;;;;-0.35;70.47;100178.75;1086510;54;20045;-78
2022/03/03 03:54:30;;;;;;;22.70;17.30;;;;;;;-0.34;70.59;100179.59;1085595;54;20035;-78
2022/03/03 03:55:37;;;;;;;23.23;16.83;;;;;;;-0.23;70.09;100177.31;1085570;54;20042;-78
2022/03/03 03:56:39;;;;;;;27.35;16.00;;;;;;;-0.18;70.08;100172.69;1086102;54;20038;-80
2022/03/03 03:57:43;;;;;;;21.92;15.50;;;;;;;-0.13;69.90;100176.88;1085782;54;20031;-78
2022/03/03 03:58:45;;;;;;;24.33;15.55;;;;;;;-0.13;69.89;100182.16;1085899;54;20038;-77
2022/03/03 03:59:49;;;;;;;22.13;16.10;;;;;;;-0.11;69.63;100175.03;1085817;54;20050;-78
2022/03/03 04:00:53;;;;;;;24.08;15.70;;;;;;;-0.01;69.73;100173.69;1085629;54;20038;-78
2022/03/03 04:01:54;;;;;;;22.48;15.85;;;;;;;-0.05;69.70;100175.56;1086126;54;20042;-78
2022/03/03 04:02:59;;;;;;;23.20;16.15;;;;;;;-0.05;69.72;100167.69;1086573;54;20043;-77
2022/03/03 04:04:00;;;;;;;22.95;16.10;;;;;;;-0.12;70.04;100174.19;1086179;54;20045;-78
2022/03/03 04:05:05;;;;;;;23.90;16.55;;;;;;;-0.13;70.30;100171.63;1086091;54;20328;-77
2022/03/03 04:06:07;;;;;;;25.70;17.15;;;;;;;-0.16;70.33;100172.63;1085491;54;20045;-77
2022/03/03 04:07:11;;;;;;;24.50;17.35;;;;;;;-0.20;70.46;100182.44;1085874;54;20030;-78
2022/03/03 04:08:14;;;;;;;22.48;16.65;;;;;;;-0.13;70.44;100179.50;1085895;54;20031;-77
2022/03/03 04:09:18;;;;;;;22.95;17.25;;;;;;;-0.10;70.24;100176.75;1085830;54;20034;-78
2022/03/03 04:10:23;;;;;;;28.00;19.02;;;;;;;-0.13;70.42;100171.63;1086144;47;20034;-77
2022/03/03 04:11:27;;;;;;;24.42;17.55;;;;;;;-0.20;70.74;100181.56;1086674;54;20074;-79
2022/03/03 04:12:32;;;;;;;23.92;17.83;;;;;;;-0.23;70.60;100182.59;1086392;54;20149;-78
2022/03/03 04:13:33;;;;;;;25.70;18.10;;;;;;;-0.18;70.44;100174.47;1086538;54;20042;-78
2022/03/03 04:14:37;;;;;;;24.58;17.20;;;;;;;-0.12;70.34;100182.06;1086972;54;20026;-78
2022/03/03 04:15:39;;;;;;;27.65;18.15;;;;;;;-0.16;70.36;100175.25;1087729;47;20042;-79
2022/03/03 04:16:44;;;;;;;23.55;17.25;;;;;;;-0.14;70.27;100177.81;1087750;54;20035;-77
2022/03/03 04:17:46;;;;;;;25.60;17.02;;;;;;;-0.13;70.15;100171.63;1087677;54;20030;-78
2022/03/03 04:18:50;;;;;;;24.10;16.70;;;;;;;-0.16;70.21;100173.47;1087665;54;20045;-78
2022/03/03 04:19:52;;;;;;;24.88;17.92;;;;;;;-0.18;70.57;100171.84;1087794;54;20046;-78
2022/03/03 04:20:56;;;;;;;25.80;18.13;;;;;;;-0.23;70.32;100168.56;1087793;54;20034;-78
2022/03/03 04:22:00;;;;;;;24.10;18.48;;;;;;;-0.33;70.79;100166.38;1087978;54;20045;-79
2022/03/03 04:23:05;;;;;;;26.35;18.80;;;;;;;-0.33;70.84;100163.75;1087618;54;20061;-79
2022/03/03 04:24:07;;;;;;;30.55;19.92;;;;;;;-0.42;71.27;100169.44;1087155;54;20046;-78
2022/03/03 04:25:13;;;;;;;29.15;19.48;;;;;;;-0.39;71.13;100160.59;1086679;54;20034;-78
2022/03/03 04:26:15;;;;;;;27.50;19.27;;;;;;;-0.43;71.20;100164.28;1086567;54;20069;-78
2022/03/03 04:27:21;;;;;;;26.65;18.15;;;;;;;-0.43;71.35;100156.38;1086685;54;20047;-78
2022/03/03 04:28:23;;;;;;;27.30;19.13;;;;;;;-0.42;71.16;100152.84;1087432;54;20045;-79
2022/03/03 04:29:33;;;;;;;26.33;18.25;;;;;;;-0.50;71.51;100159.31;1089747;47;20556;-77
2022/03/03 04:30:35;;;;;;;29.52;20.20;;;;;;;-0.54;71.99;100159.53;1087784;54;20022;-76
2022/03/03 04:31:40;;;;;;;27.58;19.17;;;;;;;-0.57;71.88;100157.03;1087899;54;20034;-77
2022/03/03 04:32:41;;;;;;;27.52;18.30;;;;;;;-0.62;72.20;100159.88;1088459;47;20030;-78
2022/03/03 04:33:46;;;;;;;28.45;20.33;;;;;;;-0.66;72.33;100153.91;1087867;54;20038;-78
2022/03/03 04:34:49;;;;;;;29.75;20.00;;;;;;;-0.69;72.77;100164.53;1087855;54;20038;-78
2022/03/03 04:35:54;;;;;;;27.80;19.30;;;;;;;-0.70;72.73;100162.84;1088205;47;20038;-78
2022/03/03 04:36:58;;;;;;;27.88;19.88;;;;;;;-0.64;72.55;100153.81;1089697;47;20046;-77
2022/03/03 04:37:59;;;;;;;30.17;19.13;;;;;;;-0.64;72.52;100156.44;1087667;54;20015;-78
2022/03/03 04:39:04;;;;;;;24.92;18.55;;;;;;;-0.59;72.47;100151.84;1088000;46;20037;-78
2022/03/03 04:40:12;;;;;;;27.33;19.02;;;;;;;-0.59;72.64;100154.47;1087108;54;20038;-79
2022/03/03 04:41:16;;;;;;;24.20;18.30;;;;;;;-0.49;72.08;100153.13;1087718;54;20026;-77
2022/03/03 04:42:20;;;;;;;25.48;17.35;;;;;;;-0.41;71.99;100157.16;1087502;54;20045;-79
2022/03/03 04:43:25;;;;;;;24.42;18.00;;;;;;;-0.46;72.01;100162.63;1087487;54;20042;-78
2022/03/03 04:44:27;;;;;;;26.30;17.83;;;;;;;-0.53;72.14;100159.44;1087300;54;20048;-78
2022/03/03 04:45:31;;;;;;;24.80;19.00;;;;;;;-0.52;72.42;100150.63;1087314;54;20038;-78
2022/03/03 04:46:34;;;;;;;25.15;18.00;;;;;;;-0.46;72.17;100160.00;1087887;54;20050;-77
2022/03/03 04:47:38;;;;;;;23.05;17.05;;;;;;;-0.36;71.95;100155.16;1086989;54;20042;-79
2022/03/03 04:48:40;;;;;;;23.67;17.17;;;;;;;-0.36;71.85;100166.53;1085780;46;20565;-79
2022/03/03 04:49:44;;;;;;;24.05;17.17;;;;;;;-0.26;71.51;100171.38;1086037;54;20069;-78
2022/03/03 04:50:46;;;;;;;24.27;16.55;;;;;;;-0.21;71.38;100166.72;1086690;54;20046;-79
2022/03/03 04:51:51;;;;;;;24.60;17.25;;;;;;;-0.19;71.27;100178.88;1086709;54;20115;-79